sensor_id;sensor_type;location;lat;lon;timestamp;P1;durP1;ratioP1;P2;durP2;ratioP2
17915;SDS011;9083;49.156;8.982;2023-03-01T00:01:29;17.23;;;11.27;;
17915;SDS011;9083;49.156;8.982;2023-03-01T00:03:55;19.93;;;9.77;;
17915;SDS011;9083;49.156;8.982;2023-03-01T00:06:22;15.57;;;9.00;;
17915;SDS011;9083;49.156;8.982;2023-03-01T00:08:49;19.30;;;9.30;;
17915;SDS011;9083;49.156;8.982;2023-03-01T00:11:16;16.43;;;9.00;;
17915;SDS011;9083;49.156;8.982;2023-03-01T00:13:43;15.90;;;8.70;;
17915;SDS011;9083;49.156;8.982;2023-03-01T00:16:12;18.00;;;10.40;;
17915;SDS011;9083;49.156;8.982;2023-03-01T00:18:39;19.73;;;11.70;;
17915;SDS011;9083;49.156;8.982;2023-03-01T00:21:05;16.60;;;10.77;;
17915;SDS011;9083;49.156;8.982;2023-03-01T00:23:33;15.13;;;9.73;;
17915;SDS011;9083;49.156;8.982;2023-03-01T00:26:00;16.37;;;10.23;;
17915;SDS011;9083;49.156;8.982;2023-03-01T00:28:26;17.70;;;10.77;;
17915;SDS011;9083;49.156;8.982;2023-03-01T00:30:53;21.43;;;11.37;;
17915;SDS011;9083;49.156;8.982;2023-03-01T00:33:20;22.40;;;11.10;;
17915;SDS011;9083;49.156;8.982;2023-03-01T00:35:47;18.90;;;10.33;;
17915;SDS011;9083;49.156;8.982;2023-03-01T00:38:13;19.13;;;9.73;;
17915;SDS011;9083;49.156;8.982;2023-03-01T00:40:40;20.17;;;10.33;;
17915;SDS011;9083;49.156;8.982;2023-03-01T00:43:06;16.23;;;10.60;;
17915;SDS011;9083;49.156;8.982;2023-03-01T00:45:32;20.23;;;10.87;;
17915;SDS011;9083;49.156;8.982;2023-03-01T00:47:59;23.07;;;12.07;;
17915;SDS011;9083;49.156;8.982;2023-03-01T00:50:27;20.60;;;11.47;;
17915;SDS011;9083;49.156;8.982;2023-03-01T00:52:53;18.37;;;11.00;;
17915;SDS011;9083;49.156;8.982;2023-03-01T00:55:20;16.07;;;10.17;;
17915;SDS011;9083;49.156;8.982;2023-03-01T00:57:46;19.30;;;11.07;;
17915;SDS011;9083;49.156;8.982;2023-03-01T01:00:13;23.17;;;11.97;;
17915;SDS011;9083;49.156;8.982;2023-03-01T01:02:39;17.83;;;9.00;;
17915;SDS011;9083;49.156;8.982;2023-03-01T01:05:06;17.77;;;10.53;;
17915;SDS011;9083;49.156;8.982;2023-03-01T01:07:34;20.53;;;10.97;;
17915;SDS011;9083;49.156;8.982;2023-03-01T01:10:01;21.50;;;12.57;;
17915;SDS011;9083;49.156;8.982;2023-03-01T01:12:27;19.80;;;11.73;;
17915;SDS011;9083;49.156;8.982;2023-03-01T01:14:54;23.73;;;10.43;;
17915;SDS011;9083;49.156;8.982;2023-03-01T01:17:20;20.43;;;11.13;;
17915;SDS011;9083;49.156;8.982;2023-03-01T01:19:46;21.33;;;11.13;;
17915;SDS011;9083;49.156;8.982;2023-03-01T01:22:13;21.37;;;11.63;;
17915;SDS011;9083;49.156;8.982;2023-03-01T01:24:41;19.77;;;10.43;;
17915;SDS011;9083;49.156;8.982;2023-03-01T01:27:07;20.13;;;11.53;;
17915;SDS011;9083;49.156;8.982;2023-03-01T01:29:33;18.57;;;10.83;;
17915;SDS011;9083;49.156;8.982;2023-03-01T01:32:00;22.27;;;11.30;;
17915;SDS011;9083;49.156;8.982;2023-03-01T01:34:26;18.73;;;9.57;;
17915;SDS011;9083;49.156;8.982;2023-03-01T01:36:53;21.33;;;11.40;;
17915;SDS011;9083;49.156;8.982;2023-03-01T01:39:19;19.20;;;11.27;;
17915;SDS011;9083;49.156;8.982;2023-03-01T01:41:47;20.47;;;11.37;;
17915;SDS011;9083;49.156;8.982;2023-03-01T01:44:15;22.27;;;11.67;;
17915;SDS011;9083;49.156;8.982;2023-03-01T01:46:43;22.87;;;11.00;;
17915;SDS011;9083;49.156;8.982;2023-03-01T01:49:14;21.07;;;11.20;;
17915;SDS011;9083;49.156;8.982;2023-03-01T01:51:44;21.40;;;11.07;;
17915;SDS011;9083;49.156;8.982;2023-03-01T01:54:14;23.17;;;10.87;;
17915;SDS011;9083;49.156;8.982;2023-03-01T01:56:44;19.53;;;10.13;;
17915;SDS011;9083;49.156;8.982;2023-03-01T01:59:13;21.47;;;11.27;;
17915;SDS011;9083;49.156;8.982;2023-03-01T02:01:40;22.07;;;11.20;;
17915;SDS011;9083;49.156;8.982;2023-03-01T02:04:07;24.37;;;10.80;;
17915;SDS011;9083;49.156;8.982;2023-03-01T02:06:33;18.70;;;10.77;;
17915;SDS011;9083;49.156;8.982;2023-03-01T02:09:02;22.93;;;11.13;;
17915;SDS011;9083;49.156;8.982;2023-03-01T02:11:29;20.23;;;10.80;;
17915;SDS011;9083;49.156;8.982;2023-03-01T02:13:56;20.43;;;10.63;;
17915;SDS011;9083;49.156;8.982;2023-03-01T02:16:24;22.53;;;10.53;;
17915;SDS011;9083;49.156;8.982;2023-03-01T02:18:51;18.97;;;9.83;;
17915;SDS011;9083;49.156;8.982;2023-03-01T02:21:22;17.20;;;9.60;;
17915;SDS011;9083;49.156;8.982;2023-03-01T02:23:51;19.50;;;10.40;;
17915;SDS011;9083;49.156;8.982;2023-03-01T02:26:20;22.57;;;10.70;;
17915;SDS011;9083;49.156;8.982;2023-03-01T02:28:50;17.43;;;10.07;;
17915;SDS011;9083;49.156;8.982;2023-03-01T02:31:18;21.73;;;11.37;;
17915;SDS011;9083;49.156;8.982;2023-03-01T02:34:03;20.27;;;10.57;;
17915;SDS011;9083;49.156;8.982;2023-03-01T02:36:31;22.90;;;10.13;;
17915;SDS011;9083;49.156;8.982;2023-03-01T02:38:58;22.13;;;10.63;;
17915;SDS011;9083;49.156;8.982;2023-03-01T02:41:27;27.40;;;11.73;;
17915;SDS011;9083;49.156;8.982;2023-03-01T02:43:56;21.30;;;10.43;;
17915;SDS011;9083;49.156;8.982;2023-03-01T02:46:24;20.60;;;11.07;;
17915;SDS011;9083;49.156;8.982;2023-03-01T02:48:51;19.30;;;11.37;;
17915;SDS011;9083;49.156;8.982;2023-03-01T02:51:31;23.30;;;10.17;;
17915;SDS011;9083;49.156;8.982;2023-03-01T02:54:05;21.30;;;10.27;;
17915;SDS011;9083;49.156;8.982;2023-03-01T02:56:33;19.40;;;11.53;;
17915;SDS011;9083;49.156;8.982;2023-03-01T02:59:01;22.50;;;10.30;;
17915;SDS011;9083;49.156;8.982;2023-03-01T03:01:28;25.20;;;11.77;;
17915;SDS011;9083;49.156;8.982;2023-03-01T03:04:01;20.40;;;10.63;;
17915;SDS011;9083;49.156;8.982;2023-03-01T03:06:28;23.23;;;11.77;;
17915;SDS011;9083;49.156;8.982;2023-03-01T03:08:55;21.27;;;11.10;;
17915;SDS011;9083;49.156;8.982;2023-03-01T03:11:21;22.47;;;11.13;;
17915;SDS011;9083;49.156;8.982;2023-03-01T03:13:48;21.23;;;11.30;;
17915;SDS011;9083;49.156;8.982;2023-03-01T03:16:16;20.93;;;12.50;;
17915;SDS011;9083;49.156;8.982;2023-03-01T03:18:42;20.70;;;9.20;;
17915;SDS011;9083;49.156;8.982;2023-03-01T03:21:09;24.67;;;12.93;;
17915;SDS011;9083;49.156;8.982;2023-03-01T03:23:36;20.80;;;11.83;;
17915;SDS011;9083;49.156;8.982;2023-03-01T03:26:03;26.33;;;13.70;;
17915;SDS011;9083;49.156;8.982;2023-03-01T03:28:29;23.23;;;11.77;;
17915;SDS011;9083;49.156;8.982;2023-03-01T03:30:56;23.57;;;12.23;;
17915;SDS011;9083;49.156;8.982;2023-03-01T03:33:24;26.30;;;13.07;;
17915;SDS011;9083;49.156;8.982;2023-03-01T03:35:51;24.37;;;11.83;;
17915;SDS011;9083;49.156;8.982;2023-03-01T03:38:18;24.50;;;12.07;;
17915;SDS011;9083;49.156;8.982;2023-03-01T03:40:47;28.23;;;13.73;;
17915;SDS011;9083;49.156;8.982;2023-03-01T03:43:14;24.73;;;12.33;;
17915;SDS011;9083;49.156;8.982;2023-03-01T03:45:41;27.07;;;13.40;;
17915;SDS011;9083;49.156;8.982;2023-03-01T03:48:09;27.70;;;12.43;;
17915;SDS011;9083;49.156;8.982;2023-03-01T03:50:37;28.13;;;13.33;;
17915;SDS011;9083;49.156;8.982;2023-03-01T03:53:04;25.47;;;13.00;;
17915;SDS011;9083;49.156;8.982;2023-03-01T03:55:31;26.03;;;13.50;;
17915;SDS011;9083;49.156;8.982;2023-03-01T03:57:58;22.07;;;11.33;;
17915;SDS011;9083;49.156;8.982;2023-03-01T04:00:27;30.50;;;16.27;;
17915;SDS011;9083;49.156;8.982;2023-03-01T04:02:54;31.47;;;18.97;;
17915;SDS011;9083;49.156;8.982;2023-03-01T04:05:21;26.77;;;14.83;;
17915;SDS011;9083;49.156;8.982;2023-03-01T04:07:49;22.10;;;13.80;;
17915;SDS011;9083;49.156;8.982;2023-03-01T04:10:26;40.97;;;20.00;;
17915;SDS011;9083;49.156;8.982;2023-03-01T04:12:53;29.70;;;15.60;;
17915;SDS011;9083;49.156;8.982;2023-03-01T04:15:21;25.53;;;14.13;;
17915;SDS011;9083;49.156;8.982;2023-03-01T04:17:49;25.33;;;13.43;;
17915;SDS011;9083;49.156;8.982;2023-03-01T04:20:18;32.63;;;13.93;;
17915;SDS011;9083;49.156;8.982;2023-03-01T04:22:51;24.87;;;14.63;;
17915;SDS011;9083;49.156;8.982;2023-03-01T04:25:17;31.67;;;16.40;;
17915;SDS011;9083;49.156;8.982;2023-03-01T04:27:44;26.37;;;12.53;;
17915;SDS011;9083;49.156;8.982;2023-03-01T04:30:10;27.07;;;15.23;;
17915;SDS011;9083;49.156;8.982;2023-03-01T04:32:37;27.70;;;13.90;;
17915;SDS011;9083;49.156;8.982;2023-03-01T04:35:03;29.20;;;13.20;;
17915;SDS011;9083;49.156;8.982;2023-03-01T04:37:30;28.90;;;14.20;;
17915;SDS011;9083;49.156;8.982;2023-03-01T04:39:58;30.60;;;14.37;;
17915;SDS011;9083;49.156;8.982;2023-03-01T04:42:24;34.33;;;14.40;;
17915;SDS011;9083;49.156;8.982;2023-03-01T04:44:51;36.57;;;20.03;;
17915;SDS011;9083;49.156;8.982;2023-03-01T04:47:18;33.87;;;17.33;;
17915;SDS011;9083;49.156;8.982;2023-03-01T04:49:44;28.07;;;13.93;;
17915;SDS011;9083;49.156;8.982;2023-03-01T04:52:11;35.23;;;19.43;;
17915;SDS011;9083;49.156;8.982;2023-03-01T04:54:37;31.80;;;15.93;;
17915;SDS011;9083;49.156;8.982;2023-03-01T04:57:05;29.47;;;14.20;;
17915;SDS011;9083;49.156;8.982;2023-03-01T04:59:32;31.33;;;17.93;;
17915;SDS011;9083;49.156;8.982;2023-03-01T05:01:58;31.97;;;13.50;;
17915;SDS011;9083;49.156;8.982;2023-03-01T05:04:25;27.90;;;14.80;;
17915;SDS011;9083;49.156;8.982;2023-03-01T05:06:52;32.67;;;15.00;;
17915;SDS011;9083;49.156;8.982;2023-03-01T05:09:19;27.63;;;13.97;;
17915;SDS011;9083;49.156;8.982;2023-03-01T05:11:46;29.80;;;15.60;;
17915;SDS011;9083;49.156;8.982;2023-03-01T05:14:14;29.63;;;15.90;;
17915;SDS011;9083;49.156;8.982;2023-03-01T05:16:40;24.87;;;13.80;;
17915;SDS011;9083;49.156;8.982;2023-03-01T05:19:06;30.70;;;15.43;;
17915;SDS011;9083;49.156;8.982;2023-03-01T05:21:40;29.50;;;14.33;;
17915;SDS011;9083;49.156;8.982;2023-03-01T05:24:26;30.43;;;16.30;;
17915;SDS011;9083;49.156;8.982;2023-03-01T05:26:53;29.17;;;14.07;;
17915;SDS011;9083;49.156;8.982;2023-03-01T05:29:21;27.03;;;14.30;;
17915;SDS011;9083;49.156;8.982;2023-03-01T05:31:50;25.87;;;14.33;;
17915;SDS011;9083;49.156;8.982;2023-03-01T05:34:17;33.70;;;15.97;;
17915;SDS011;9083;49.156;8.982;2023-03-01T05:36:44;28.47;;;14.00;;
17915;SDS011;9083;49.156;8.982;2023-03-01T05:39:10;26.37;;;13.83;;
17915;SDS011;9083;49.156;8.982;2023-03-01T05:41:37;30.37;;;14.90;;
17915;SDS011;9083;49.156;8.982;2023-03-01T05:44:03;33.03;;;15.73;;
17915;SDS011;9083;49.156;8.982;2023-03-01T05:46:33;29.87;;;15.77;;
17915;SDS011;9083;49.156;8.982;2023-03-01T05:48:59;27.47;;;14.37;;
17915;SDS011;9083;49.156;8.982;2023-03-01T05:51:27;38.63;;;15.67;;
17915;SDS011;9083;49.156;8.982;2023-03-01T05:53:54;34.20;;;14.43;;
17915;SDS011;9083;49.156;8.982;2023-03-01T05:56:20;29.80;;;12.33;;
17915;SDS011;9083;49.156;8.982;2023-03-01T05:58:47;26.00;;;13.27;;
17915;SDS011;9083;49.156;8.982;2023-03-01T06:01:14;30.57;;;14.97;;
17915;SDS011;9083;49.156;8.982;2023-03-01T06:03:42;27.60;;;13.97;;
17915;SDS011;9083;49.156;8.982;2023-03-01T06:06:08;24.07;;;13.57;;
17915;SDS011;9083;49.156;8.982;2023-03-01T06:08:35;32.73;;;14.03;;
17915;SDS011;9083;49.156;8.982;2023-03-01T06:11:01;28.80;;;15.27;;
17915;SDS011;9083;49.156;8.982;2023-03-01T06:13:27;27.60;;;12.60;;
17915;SDS011;9083;49.156;8.982;2023-03-01T06:15:54;28.50;;;14.57;;
17915;SDS011;9083;49.156;8.982;2023-03-01T06:18:21;31.43;;;15.83;;
17915;SDS011;9083;49.156;8.982;2023-03-01T06:20:53;24.23;;;12.77;;
17915;SDS011;9083;49.156;8.982;2023-03-01T06:23:19;35.00;;;15.63;;
17915;SDS011;9083;49.156;8.982;2023-03-01T06:25:46;31.83;;;13.37;;
17915;SDS011;9083;49.156;8.982;2023-03-01T06:28:15;40.17;;;14.60;;
17915;SDS011;9083;49.156;8.982;2023-03-01T06:30:42;32.33;;;15.40;;
17915;SDS011;9083;49.156;8.982;2023-03-01T06:33:08;28.73;;;14.37;;
17915;SDS011;9083;49.156;8.982;2023-03-01T06:35:34;27.63;;;13.40;;
17915;SDS011;9083;49.156;8.982;2023-03-01T06:38:03;32.17;;;16.07;;
17915;SDS011;9083;49.156;8.982;2023-03-01T06:40:30;27.43;;;14.27;;
17915;SDS011;9083;49.156;8.982;2023-03-01T06:42:57;31.70;;;14.00;;
17915;SDS011;9083;49.156;8.982;2023-03-01T06:45:23;26.93;;;13.53;;
17915;SDS011;9083;49.156;8.982;2023-03-01T06:47:50;31.87;;;15.57;;
17915;SDS011;9083;49.156;8.982;2023-03-01T06:50:17;29.13;;;15.13;;
17915;SDS011;9083;49.156;8.982;2023-03-01T06:52:44;30.93;;;15.40;;
17915;SDS011;9083;49.156;8.982;2023-03-01T06:55:12;31.40;;;15.93;;
17915;SDS011;9083;49.156;8.982;2023-03-01T06:57:39;20.53;;;12.37;;
17915;SDS011;9083;49.156;8.982;2023-03-01T07:00:05;37.13;;;14.13;;
17915;SDS011;9083;49.156;8.982;2023-03-01T07:02:33;25.50;;;13.70;;
17915;SDS011;9083;49.156;8.982;2023-03-01T07:04:59;32.57;;;14.27;;
17915;SDS011;9083;49.156;8.982;2023-03-01T07:07:25;27.17;;;13.60;;
17915;SDS011;9083;49.156;8.982;2023-03-01T07:09:52;30.77;;;15.17;;
17915;SDS011;9083;49.156;8.982;2023-03-01T07:12:20;29.67;;;14.47;;
17915;SDS011;9083;49.156;8.982;2023-03-01T07:14:47;32.53;;;14.57;;
17915;SDS011;9083;49.156;8.982;2023-03-01T07:17:13;22.63;;;11.90;;
17915;SDS011;9083;49.156;8.982;2023-03-01T07:19:39;28.23;;;14.73;;
17915;SDS011;9083;49.156;8.982;2023-03-01T07:22:06;29.43;;;13.57;;
17915;SDS011;9083;49.156;8.982;2023-03-01T07:24:34;31.30;;;14.77;;
17915;SDS011;9083;49.156;8.982;2023-03-01T07:27:00;35.13;;;14.93;;
17915;SDS011;9083;49.156;8.982;2023-03-01T07:29:28;32.93;;;17.07;;
17915;SDS011;9083;49.156;8.982;2023-03-01T07:31:54;42.10;;;16.40;;
17915;SDS011;9083;49.156;8.982;2023-03-01T07:34:21;29.80;;;14.73;;
17915;SDS011;9083;49.156;8.982;2023-03-01T07:36:47;29.40;;;15.33;;
17915;SDS011;9083;49.156;8.982;2023-03-01T07:39:14;29.43;;;15.17;;
17915;SDS011;9083;49.156;8.982;2023-03-01T07:41:40;30.63;;;13.77;;
17915;SDS011;9083;49.156;8.982;2023-03-01T07:44:06;35.97;;;16.00;;
17915;SDS011;9083;49.156;8.982;2023-03-01T07:46:34;31.10;;;14.97;;
17915;SDS011;9083;49.156;8.982;2023-03-01T07:49:00;43.83;;;15.77;;
17915;SDS011;9083;49.156;8.982;2023-03-01T07:51:27;25.83;;;13.30;;
17915;SDS011;9083;49.156;8.982;2023-03-01T07:53:53;31.53;;;17.00;;
17915;SDS011;9083;49.156;8.982;2023-03-01T07:56:20;29.77;;;14.70;;
17915;SDS011;9083;49.156;8.982;2023-03-01T07:58:47;29.57;;;13.97;;
17915;SDS011;9083;49.156;8.982;2023-03-01T08:01:16;27.33;;;14.70;;
17915;SDS011;9083;49.156;8.982;2023-03-01T08:03:43;29.47;;;13.57;;
17915;SDS011;9083;49.156;8.982;2023-03-01T08:06:11;29.63;;;14.33;;
17915;SDS011;9083;49.156;8.982;2023-03-01T08:08:38;32.20;;;14.53;;
17915;SDS011;9083;49.156;8.982;2023-03-01T08:11:05;33.67;;;14.37;;
17915;SDS011;9083;49.156;8.982;2023-03-01T08:13:31;25.90;;;13.97;;
17915;SDS011;9083;49.156;8.982;2023-03-01T08:16:00;34.40;;;15.47;;
17915;SDS011;9083;49.156;8.982;2023-03-01T08:18:27;32.77;;;16.77;;
17915;SDS011;9083;49.156;8.982;2023-03-01T08:20:54;27.57;;;15.13;;
17915;SDS011;9083;49.156;8.982;2023-03-01T08:23:21;34.17;;;16.70;;
17915;SDS011;9083;49.156;8.982;2023-03-01T08:25:47;38.57;;;16.63;;
17915;SDS011;9083;49.156;8.982;2023-03-01T08:28:13;24.57;;;13.50;;
17915;SDS011;9083;49.156;8.982;2023-03-01T08:30:40;30.70;;;16.03;;
17915;SDS011;9083;49.156;8.982;2023-03-01T08:33:06;32.77;;;15.00;;
17915;SDS011;9083;49.156;8.982;2023-03-01T08:35:33;55.23;;;17.57;;
17915;SDS011;9083;49.156;8.982;2023-03-01T08:38:00;35.63;;;16.17;;
17915;SDS011;9083;49.156;8.982;2023-03-01T08:40:27;30.57;;;16.43;;
17915;SDS011;9083;49.156;8.982;2023-03-01T08:42:53;26.97;;;14.97;;
17915;SDS011;9083;49.156;8.982;2023-03-01T08:45:19;28.53;;;16.17;;
17915;SDS011;9083;49.156;8.982;2023-03-01T08:47:46;29.43;;;15.23;;
17915;SDS011;9083;49.156;8.982;2023-03-01T08:50:12;31.87;;;15.53;;
17915;SDS011;9083;49.156;8.982;2023-03-01T08:52:39;27.80;;;16.47;;
17915;SDS011;9083;49.156;8.982;2023-03-01T08:55:07;33.00;;;15.27;;
17915;SDS011;9083;49.156;8.982;2023-03-01T08:57:34;32.50;;;17.80;;
17915;SDS011;9083;49.156;8.982;2023-03-01T09:00:00;39.00;;;15.57;;
17915;SDS011;9083;49.156;8.982;2023-03-01T09:02:28;28.83;;;14.93;;
17915;SDS011;9083;49.156;8.982;2023-03-01T09:04:54;30.23;;;15.90;;
17915;SDS011;9083;49.156;8.982;2023-03-01T09:07:21;30.97;;;14.03;;
17915;SDS011;9083;49.156;8.982;2023-03-01T09:09:53;49.13;;;18.73;;
17915;SDS011;9083;49.156;8.982;2023-03-01T09:12:21;27.53;;;14.50;;
17915;SDS011;9083;49.156;8.982;2023-03-01T09:14:49;38.67;;;16.53;;
17915;SDS011;9083;49.156;8.982;2023-03-01T09:17:16;33.90;;;16.27;;
17915;SDS011;9083;49.156;8.982;2023-03-01T09:19:42;33.20;;;15.57;;
17915;SDS011;9083;49.156;8.982;2023-03-01T09:22:08;23.90;;;13.10;;
17915;SDS011;9083;49.156;8.982;2023-03-01T09:24:35;36.67;;;17.23;;
17915;SDS011;9083;49.156;8.982;2023-03-01T09:27:01;29.17;;;15.00;;
17915;SDS011;9083;49.156;8.982;2023-03-01T09:29:29;33.00;;;16.83;;
17915;SDS011;9083;49.156;8.982;2023-03-01T09:31:55;38.37;;;16.67;;
17915;SDS011;9083;49.156;8.982;2023-03-01T09:34:22;34.87;;;17.57;;
17915;SDS011;9083;49.156;8.982;2023-03-01T09:36:49;31.43;;;15.00;;
17915;SDS011;9083;49.156;8.982;2023-03-01T09:39:16;29.53;;;15.43;;
17915;SDS011;9083;49.156;8.982;2023-03-01T09:41:44;37.57;;;17.07;;
17915;SDS011;9083;49.156;8.982;2023-03-01T09:44:13;39.47;;;16.23;;
17915;SDS011;9083;49.156;8.982;2023-03-01T09:46:43;32.90;;;16.77;;
17915;SDS011;9083;49.156;8.982;2023-03-01T09:49:11;31.33;;;16.43;;
17915;SDS011;9083;49.156;8.982;2023-03-01T09:51:41;40.17;;;17.57;;
17915;SDS011;9083;49.156;8.982;2023-03-01T09:54:08;32.40;;;15.77;;
17915;SDS011;9083;49.156;8.982;2023-03-01T09:56:36;35.40;;;16.63;;
17915;SDS011;9083;49.156;8.982;2023-03-01T09:59:08;29.33;;;15.77;;
17915;SDS011;9083;49.156;8.982;2023-03-01T10:01:38;34.77;;;15.73;;
17915;SDS011;9083;49.156;8.982;2023-03-01T10:04:12;28.53;;;15.40;;
17915;SDS011;9083;49.156;8.982;2023-03-01T10:06:44;43.20;;;16.03;;
17915;SDS011;9083;49.156;8.982;2023-03-01T10:09:12;24.57;;;13.97;;
17915;SDS011;9083;49.156;8.982;2023-03-01T10:11:41;35.60;;;16.73;;
17915;SDS011;9083;49.156;8.982;2023-03-01T10:14:12;32.57;;;16.10;;
17915;SDS011;9083;49.156;8.982;2023-03-01T10:16:43;32.20;;;17.47;;
17915;SDS011;9083;49.156;8.982;2023-03-01T10:19:15;30.63;;;14.70;;
17915;SDS011;9083;49.156;8.982;2023-03-01T10:21:44;28.37;;;16.00;;
17915;SDS011;9083;49.156;8.982;2023-03-01T10:24:12;34.03;;;14.90;;
17915;SDS011;9083;49.156;8.982;2023-03-01T10:26:42;30.23;;;15.83;;
17915;SDS011;9083;49.156;8.982;2023-03-01T10:29:11;37.77;;;16.60;;
17915;SDS011;9083;49.156;8.982;2023-03-01T10:31:39;29.27;;;14.37;;
17915;SDS011;9083;49.156;8.982;2023-03-01T10:34:11;31.43;;;15.70;;
17915;SDS011;9083;49.156;8.982;2023-03-01T10:36:39;26.60;;;15.40;;
17915;SDS011;9083;49.156;8.982;2023-03-01T10:39:11;40.60;;;16.63;;
17915;SDS011;9083;49.156;8.982;2023-03-01T10:41:40;34.60;;;16.27;;
17915;SDS011;9083;49.156;8.982;2023-03-01T10:44:10;32.37;;;15.50;;
17915;SDS011;9083;49.156;8.982;2023-03-01T10:46:58;25.47;;;15.23;;
17915;SDS011;9083;49.156;8.982;2023-03-01T10:49:26;32.60;;;16.60;;
17915;SDS011;9083;49.156;8.982;2023-03-01T10:51:54;29.13;;;16.40;;
17915;SDS011;9083;49.156;8.982;2023-03-01T10:54:20;29.33;;;16.07;;
17915;SDS011;9083;49.156;8.982;2023-03-01T10:56:49;27.80;;;14.60;;
17915;SDS011;9083;49.156;8.982;2023-03-01T10:59:27;33.73;;;17.37;;
17915;SDS011;9083;49.156;8.982;2023-03-01T11:02:16;27.53;;;15.03;;
17915;SDS011;9083;49.156;8.982;2023-03-01T11:04:55;69.10;;;17.90;;
17915;SDS011;9083;49.156;8.982;2023-03-01T11:07:23;24.73;;;14.83;;
17915;SDS011;9083;49.156;8.982;2023-03-01T11:09:50;31.20;;;15.63;;
17915;SDS011;9083;49.156;8.982;2023-03-01T11:12:16;32.70;;;16.57;;
17915;SDS011;9083;49.156;8.982;2023-03-01T11:14:46;27.17;;;15.60;;
17915;SDS011;9083;49.156;8.982;2023-03-01T11:17:13;33.17;;;16.30;;
17915;SDS011;9083;49.156;8.982;2023-03-01T11:19:41;31.83;;;16.90;;
17915;SDS011;9083;49.156;8.982;2023-03-01T11:22:10;46.03;;;17.27;;
17915;SDS011;9083;49.156;8.982;2023-03-01T11:24:40;32.00;;;16.40;;
17915;SDS011;9083;49.156;8.982;2023-03-01T11:27:11;27.80;;;15.87;;
17915;SDS011;9083;49.156;8.982;2023-03-01T11:29:41;32.17;;;15.13;;
17915;SDS011;9083;49.156;8.982;2023-03-01T11:32:11;29.37;;;16.50;;
17915;SDS011;9083;49.156;8.982;2023-03-01T11:34:39;32.67;;;15.27;;
17915;SDS011;9083;49.156;8.982;2023-03-01T11:37:16;26.23;;;15.63;;
17915;SDS011;9083;49.156;8.982;2023-03-01T11:39:52;35.17;;;16.57;;
17915;SDS011;9083;49.156;8.982;2023-03-01T11:42:20;29.53;;;16.87;;
17915;SDS011;9083;49.156;8.982;2023-03-01T11:44:49;30.30;;;15.37;;
17915;SDS011;9083;49.156;8.982;2023-03-01T11:47:24;41.50;;;17.13;;
17915;SDS011;9083;49.156;8.982;2023-03-01T11:50:12;35.60;;;16.07;;
17915;SDS011;9083;49.156;8.982;2023-03-01T11:52:43;28.43;;;16.73;;
17915;SDS011;9083;49.156;8.982;2023-03-01T11:55:21;28.40;;;15.40;;
17915;SDS011;9083;49.156;8.982;2023-03-01T11:57:55;28.97;;;15.57;;
17915;SDS011;9083;49.156;8.982;2023-03-01T12:00:32;25.60;;;15.63;;
17915;SDS011;9083;49.156;8.982;2023-03-01T12:03:11;26.57;;;15.93;;
17915;SDS011;9083;49.156;8.982;2023-03-01T12:06:03;32.63;;;15.63;;
17915;SDS011;9083;49.156;8.982;2023-03-01T12:08:33;30.07;;;16.90;;
17915;SDS011;9083;49.156;8.982;2023-03-01T12:11:06;35.37;;;16.73;;
17915;SDS011;9083;49.156;8.982;2023-03-01T12:13:45;48.13;;;17.10;;
17915;SDS011;9083;49.156;8.982;2023-03-01T12:16:23;26.80;;;15.17;;
17915;SDS011;9083;49.156;8.982;2023-03-01T12:18:59;28.07;;;15.10;;
17915;SDS011;9083;49.156;8.982;2023-03-01T12:21:30;28.70;;;15.30;;
17915;SDS011;9083;49.156;8.982;2023-03-01T12:24:05;32.97;;;16.03;;
17915;SDS011;9083;49.156;8.982;2023-03-01T12:26:38;28.87;;;15.90;;
17915;SDS011;9083;49.156;8.982;2023-03-01T12:29:11;41.93;;;17.07;;
17915;SDS011;9083;49.156;8.982;2023-03-01T12:34:26;42.23;;;18.63;;
17915;SDS011;9083;49.156;8.982;2023-03-01T12:37:01;36.40;;;16.03;;
17915;SDS011;9083;49.156;8.982;2023-03-01T12:39:37;32.97;;;16.80;;
17915;SDS011;9083;49.156;8.982;2023-03-01T12:42:10;30.97;;;16.30;;
17915;SDS011;9083;49.156;8.982;2023-03-01T12:44:44;38.30;;;16.67;;
17915;SDS011;9083;49.156;8.982;2023-03-01T12:47:18;30.13;;;16.67;;
17915;SDS011;9083;49.156;8.982;2023-03-01T12:49:49;31.93;;;16.90;;
17915;SDS011;9083;49.156;8.982;2023-03-01T12:52:19;29.30;;;17.43;;
17915;SDS011;9083;49.156;8.982;2023-03-01T12:54:47;32.13;;;19.07;;
17915;SDS011;9083;49.156;8.982;2023-03-01T12:57:17;28.00;;;15.17;;
17915;SDS011;9083;49.156;8.982;2023-03-01T12:59:47;39.83;;;20.20;;
17915;SDS011;9083;49.156;8.982;2023-03-01T13:02:19;32.13;;;17.53;;
17915;SDS011;9083;49.156;8.982;2023-03-01T13:04:52;30.93;;;15.97;;
17915;SDS011;9083;49.156;8.982;2023-03-01T13:07:22;36.27;;;18.13;;
17915;SDS011;9083;49.156;8.982;2023-03-01T13:09:52;29.57;;;17.37;;
17915;SDS011;9083;49.156;8.982;2023-03-01T13:12:47;27.20;;;14.93;;
17915;SDS011;9083;49.156;8.982;2023-03-01T13:15:25;28.60;;;14.70;;
17915;SDS011;9083;49.156;8.982;2023-03-01T13:17:52;25.73;;;14.87;;
17915;SDS011;9083;49.156;8.982;2023-03-01T13:20:19;34.63;;;16.33;;
17915;SDS011;9083;49.156;8.982;2023-03-01T13:22:46;28.87;;;14.90;;
17915;SDS011;9083;49.156;8.982;2023-03-01T13:25:15;35.07;;;16.87;;
17915;SDS011;9083;49.156;8.982;2023-03-01T13:27:41;39.53;;;14.77;;
17915;SDS011;9083;49.156;8.982;2023-03-01T13:32:50;36.53;;;17.17;;
17915;SDS011;9083;49.156;8.982;2023-03-01T13:40:58;30.60;;;13.70;;
17915;SDS011;9083;49.156;8.982;2023-03-01T13:43:32;34.47;;;15.97;;
17915;SDS011;9083;49.156;8.982;2023-03-01T13:45:59;44.87;;;22.17;;
17915;SDS011;9083;49.156;8.982;2023-03-01T13:48:28;33.07;;;15.03;;
17915;SDS011;9083;49.156;8.982;2023-03-01T13:50:55;25.53;;;15.73;;
17915;SDS011;9083;49.156;8.982;2023-03-01T13:53:24;34.50;;;15.47;;
17915;SDS011;9083;49.156;8.982;2023-03-01T13:55:52;36.90;;;18.50;;
17915;SDS011;9083;49.156;8.982;2023-03-01T13:58:23;26.40;;;14.37;;
17915;SDS011;9083;49.156;8.982;2023-03-01T14:00:55;41.50;;;16.50;;
17915;SDS011;9083;49.156;8.982;2023-03-01T14:03:21;36.63;;;16.40;;
17915;SDS011;9083;49.156;8.982;2023-03-01T14:05:58;35.83;;;15.73;;
17915;SDS011;9083;49.156;8.982;2023-03-01T14:08:26;41.00;;;16.13;;
17915;SDS011;9083;49.156;8.982;2023-03-01T14:11:00;35.50;;;17.50;;
17915;SDS011;9083;49.156;8.982;2023-03-01T14:13:36;39.37;;;16.37;;
17915;SDS011;9083;49.156;8.982;2023-03-01T14:16:10;29.77;;;14.00;;
17915;SDS011;9083;49.156;8.982;2023-03-01T14:18:39;27.77;;;14.80;;
17915;SDS011;9083;49.156;8.982;2023-03-01T14:21:13;40.43;;;16.07;;
17915;SDS011;9083;49.156;8.982;2023-03-01T14:23:40;27.07;;;14.17;;
17915;SDS011;9083;49.156;8.982;2023-03-01T14:26:08;31.40;;;16.63;;
17915;SDS011;9083;49.156;8.982;2023-03-01T14:28:36;35.20;;;18.90;;
17915;SDS011;9083;49.156;8.982;2023-03-01T14:31:25;29.13;;;15.67;;
17915;SDS011;9083;49.156;8.982;2023-03-01T14:33:54;25.73;;;14.47;;
17915;SDS011;9083;49.156;8.982;2023-03-01T14:36:25;24.80;;;13.87;;
17915;SDS011;9083;49.156;8.982;2023-03-01T14:38:52;23.00;;;12.00;;
17915;SDS011;9083;49.156;8.982;2023-03-01T14:41:20;29.53;;;15.27;;
17915;SDS011;9083;49.156;8.982;2023-03-01T14:43:47;26.23;;;14.63;;
17915;SDS011;9083;49.156;8.982;2023-03-01T14:46:19;26.37;;;14.17;;
17915;SDS011;9083;49.156;8.982;2023-03-01T14:48:48;25.13;;;14.20;;
17915;SDS011;9083;49.156;8.982;2023-03-01T14:51:14;25.53;;;14.20;;
17915;SDS011;9083;49.156;8.982;2023-03-01T14:53:42;24.50;;;13.93;;
17915;SDS011;9083;49.156;8.982;2023-03-01T14:56:12;29.87;;;13.67;;